Hauptseite
METAR-TAF:

METAR-TAF

Flughäfen :

Harbin, China

Breite: 45-45N, Länge: 126-46E, Höhe: 143 m

Beobachtung

Neuester Wetterbericht von vor 12 Minuten, um 04:00 UTC
Wind 19 kt aus Nordwest
Temperatur 12°C
Luftfeuchtigkeit 32%
Luftdruck 1012 hPa
Sichtweite 10 km oder mehr
Durchbrochene Bewölkung in der Höhe von 3300 ft

METAR: ZYHB 260400Z 31010MPS 9999 BKN033 12/M04 Q1012 NOSIG

Zeit: 12:12 (04:12 UTC)

Prognose

Neuester Wetterbericht von vor 8 Stunden und 56 Minuten, um 19:16 UTC
Gültige Prognose vom 26 um 00 UTC bis 26 um 24 UTC
Wind 12 kt aus Nordwest, Böen bis zu 23 kt
Sichtweite: 6000 m
Durchbrochene Bewölkung in der Höhe von 3000 ft
Übergehend zu
vom 26 um 08 UTC bis 26 um 09 UTC
Wind 8 kt aus West

TAF: ZYHB 251916Z 2600/2624 32006G12MPS 6000 BKN030 TX14/2606Z TN02/2621Z BECMG 2608/2609 26004MPS

Wetterbeobachtungen und Prognosen von mehr als 4000 Flughäfen (METAR und TAF Bericht).

Die verfügbaren Stationen werden durch gelbe und rote Markierungen auf der Karte dargestellt.

Führen Sie die Maus auf sie, um den Namen der Station zu sehen.

Darauf klicken, um die Beobachtung von Wetterbeobachtungen und Prognosen zu sehen.

Um die Karte zu ändern : klicken Sie auf den grünen Tasten mit einem schwarzen Kreuz Zum Vergrößern, auf den grünen Button mit einem Gedankenstrich zu verkleinern, oder auf die grünen Pfeile für benachbarte Karten.


METAR-TAF: